sensor_id;sensor_type;location;lat;lon;timestamp;P1;durP1;ratioP1;P2;durP2;ratioP2
71715;SDS011;59568;52.128;5.434;2024-01-10T00:02:01;3.30;;;0.90;;
71715;SDS011;59568;52.128;5.434;2024-01-10T00:04:29;1.55;;;1.05;;
71715;SDS011;59568;52.128;5.434;2024-01-10T00:06:56;1.15;;;0.50;;
71715;SDS011;59568;52.128;5.434;2024-01-10T00:09:23;1.33;;;0.90;;
71715;SDS011;59568;52.128;5.434;2024-01-10T00:11:50;1.48;;;1.00;;
71715;SDS011;59568;52.128;5.434;2024-01-10T00:14:17;1.53;;;0.80;;
71715;SDS011;59568;52.128;5.434;2024-01-10T00:16:44;2.38;;;1.45;;
71715;SDS011;59568;52.128;5.434;2024-01-10T00:19:11;3.28;;;1.20;;
71715;SDS011;59568;52.128;5.434;2024-01-10T00:21:38;1.15;;;0.65;;
71715;SDS011;59568;52.128;5.434;2024-01-10T00:24:05;1.95;;;1.50;;
71715;SDS011;59568;52.128;5.434;2024-01-10T00:26:32;7.23;;;1.50;;
71715;SDS011;59568;52.128;5.434;2024-01-10T00:28:59;2.90;;;1.25;;
71715;SDS011;59568;52.128;5.434;2024-01-10T00:31:30;1.27;;;0.47;;
71715;SDS011;59568;52.128;5.434;2024-01-10T00:33:57;1.73;;;0.90;;
71715;SDS011;59568;52.128;5.434;2024-01-10T00:36:25;2.55;;;1.38;;
71715;SDS011;59568;52.128;5.434;2024-01-10T00:38:52;2.97;;;1.40;;
71715;SDS011;59568;52.128;5.434;2024-01-10T00:41:19;2.53;;;0.73;;
71715;SDS011;59568;52.128;5.434;2024-01-10T00:43:46;1.65;;;0.98;;
71715;SDS011;59568;52.128;5.434;2024-01-10T00:46:13;3.28;;;0.75;;
71715;SDS011;59568;52.128;5.434;2024-01-10T00:48:40;3.05;;;1.00;;
71715;SDS011;59568;52.128;5.434;2024-01-10T00:51:07;2.13;;;0.93;;
71715;SDS011;59568;52.128;5.434;2024-01-10T00:53:35;3.42;;;1.80;;
71715;SDS011;59568;52.128;5.434;2024-01-10T00:56:05;1.58;;;0.95;;
71715;SDS011;59568;52.128;5.434;2024-01-10T00:58:33;2.58;;;1.02;;
71715;SDS011;59568;52.128;5.434;2024-01-10T01:01:00;1.80;;;1.02;;
71715;SDS011;59568;52.128;5.434;2024-01-10T01:03:27;3.37;;;1.10;;
71715;SDS011;59568;52.128;5.434;2024-01-10T01:05:54;1.80;;;0.93;;
71715;SDS011;59568;52.128;5.434;2024-01-10T01:08:22;3.03;;;1.42;;
71715;SDS011;59568;52.128;5.434;2024-01-10T01:10:49;3.90;;;0.95;;
71715;SDS011;59568;52.128;5.434;2024-01-10T01:13:16;1.25;;;0.90;;
71715;SDS011;59568;52.128;5.434;2024-01-10T01:15:43;3.13;;;1.33;;
71715;SDS011;59568;52.128;5.434;2024-01-10T01:18:09;4.68;;;1.35;;
71715;SDS011;59568;52.128;5.434;2024-01-10T01:20:39;5.32;;;1.75;;
71715;SDS011;59568;52.128;5.434;2024-01-10T01:23:06;1.40;;;0.85;;
71715;SDS011;59568;52.128;5.434;2024-01-10T01:25:33;1.92;;;1.23;;
71715;SDS011;59568;52.128;5.434;2024-01-10T01:28:00;2.13;;;1.37;;
71715;SDS011;59568;52.128;5.434;2024-01-10T01:30:27;7.20;;;1.00;;
71715;SDS011;59568;52.128;5.434;2024-01-10T01:32:54;2.35;;;1.30;;
71715;SDS011;59568;52.128;5.434;2024-01-10T01:35:22;2.70;;;1.20;;
71715;SDS011;59568;52.128;5.434;2024-01-10T01:37:50;4.10;;;1.48;;
71715;SDS011;59568;52.128;5.434;2024-01-10T01:40:18;0.83;;;0.60;;
71715;SDS011;59568;52.128;5.434;2024-01-10T01:42:45;1.52;;;1.00;;
71715;SDS011;59568;52.128;5.434;2024-01-10T01:45:12;1.60;;;0.88;;
71715;SDS011;59568;52.128;5.434;2024-01-10T01:47:40;1.52;;;1.30;;
71715;SDS011;59568;52.128;5.434;2024-01-10T01:50:07;2.20;;;1.20;;
71715;SDS011;59568;52.128;5.434;2024-01-10T01:52:35;1.20;;;0.90;;
71715;SDS011;59568;52.128;5.434;2024-01-10T01:55:05;2.45;;;1.05;;
71715;SDS011;59568;52.128;5.434;2024-01-10T01:57:34;1.00;;;0.82;;
71715;SDS011;59568;52.128;5.434;2024-01-10T02:00:02;0.85;;;0.65;;
71715;SDS011;59568;52.128;5.434;2024-01-10T02:02:30;1.67;;;1.20;;
71715;SDS011;59568;52.128;5.434;2024-01-10T02:04:58;2.13;;;0.93;;
71715;SDS011;59568;52.128;5.434;2024-01-10T02:07:26;3.28;;;1.13;;
71715;SDS011;59568;52.128;5.434;2024-01-10T02:09:53;2.22;;;1.17;;
71715;SDS011;59568;52.128;5.434;2024-01-10T02:12:20;6.70;;;1.80;;
71715;SDS011;59568;52.128;5.434;2024-01-10T02:14:47;2.83;;;1.75;;
71715;SDS011;59568;52.128;5.434;2024-01-10T02:17:15;6.07;;;1.63;;
71715;SDS011;59568;52.128;5.434;2024-01-10T02:19:42;2.90;;;1.42;;
71715;SDS011;59568;52.128;5.434;2024-01-10T02:22:09;0.82;;;0.65;;
71715;SDS011;59568;52.128;5.434;2024-01-10T02:24:37;1.30;;;0.88;;
71715;SDS011;59568;52.128;5.434;2024-01-10T02:27:04;2.08;;;1.13;;
71715;SDS011;59568;52.128;5.434;2024-01-10T02:29:31;2.27;;;1.00;;
71715;SDS011;59568;52.128;5.434;2024-01-10T02:32:00;1.63;;;1.23;;
71715;SDS011;59568;52.128;5.434;2024-01-10T02:34:27;1.17;;;0.93;;
71715;SDS011;59568;52.128;5.434;2024-01-10T02:36:55;1.17;;;0.70;;
71715;SDS011;59568;52.128;5.434;2024-01-10T02:39:23;1.30;;;0.60;;
71715;SDS011;59568;52.128;5.434;2024-01-10T02:41:50;2.17;;;1.03;;
71715;SDS011;59568;52.128;5.434;2024-01-10T02:44:17;3.30;;;1.30;;
71715;SDS011;59568;52.128;5.434;2024-01-10T02:46:46;1.23;;;0.90;;
71715;SDS011;59568;52.128;5.434;2024-01-10T02:49:13;1.42;;;1.30;;
71715;SDS011;59568;52.128;5.434;2024-01-10T02:51:40;4.13;;;1.52;;
71715;SDS011;59568;52.128;5.434;2024-01-10T02:54:06;0.60;;;0.47;;
71715;SDS011;59568;52.128;5.434;2024-01-10T02:56:33;1.63;;;1.00;;
71715;SDS011;59568;52.128;5.434;2024-01-10T02:59:00;2.67;;;1.35;;
71715;SDS011;59568;52.128;5.434;2024-01-10T03:01:27;3.65;;;1.08;;
71715;SDS011;59568;52.128;5.434;2024-01-10T03:03:54;3.83;;;1.50;;
71715;SDS011;59568;52.128;5.434;2024-01-10T03:06:21;2.53;;;1.20;;
71715;SDS011;59568;52.128;5.434;2024-01-10T03:08:49;0.98;;;0.75;;
71715;SDS011;59568;52.128;5.434;2024-01-10T03:11:16;2.22;;;1.02;;
71715;SDS011;59568;52.128;5.434;2024-01-10T03:13:43;2.47;;;1.48;;
71715;SDS011;59568;52.128;5.434;2024-01-10T03:16:13;1.80;;;0.90;;
71715;SDS011;59568;52.128;5.434;2024-01-10T03:18:40;1.80;;;0.90;;
71715;SDS011;59568;52.128;5.434;2024-01-10T03:21:07;2.85;;;1.52;;
71715;SDS011;59568;52.128;5.434;2024-01-10T03:23:34;1.85;;;0.60;;
71715;SDS011;59568;52.128;5.434;2024-01-10T03:26:01;1.70;;;1.33;;
71715;SDS011;59568;52.128;5.434;2024-01-10T03:28:28;1.90;;;1.13;;
71715;SDS011;59568;52.128;5.434;2024-01-10T03:30:54;2.77;;;1.43;;
71715;SDS011;59568;52.128;5.434;2024-01-10T03:33:21;2.88;;;0.85;;
71715;SDS011;59568;52.128;5.434;2024-01-10T03:35:49;1.52;;;0.85;;
71715;SDS011;59568;52.128;5.434;2024-01-10T03:38:15;2.45;;;1.60;;
71715;SDS011;59568;52.128;5.434;2024-01-10T03:40:43;1.67;;;1.25;;
71715;SDS011;59568;52.128;5.434;2024-01-10T03:43:10;1.83;;;1.27;;
71715;SDS011;59568;52.128;5.434;2024-01-10T03:45:38;2.55;;;1.48;;
71715;SDS011;59568;52.128;5.434;2024-01-10T03:48:05;2.20;;;1.30;;
71715;SDS011;59568;52.128;5.434;2024-01-10T03:50:33;2.55;;;0.95;;
71715;SDS011;59568;52.128;5.434;2024-01-10T03:53:00;4.05;;;1.75;;
71715;SDS011;59568;52.128;5.434;2024-01-10T03:55:28;1.73;;;1.33;;
71715;SDS011;59568;52.128;5.434;2024-01-10T03:57:56;1.90;;;1.25;;
71715;SDS011;59568;52.128;5.434;2024-01-10T04:00:23;4.38;;;1.30;;
71715;SDS011;59568;52.128;5.434;2024-01-10T04:02:52;1.95;;;0.95;;
71715;SDS011;59568;52.128;5.434;2024-01-10T04:05:19;1.98;;;1.33;;
71715;SDS011;59568;52.128;5.434;2024-01-10T04:07:47;1.73;;;1.13;;
71715;SDS011;59568;52.128;5.434;2024-01-10T04:10:14;1.05;;;0.70;;
71715;SDS011;59568;52.128;5.434;2024-01-10T04:12:41;3.75;;;1.77;;
71715;SDS011;59568;52.128;5.434;2024-01-10T04:15:09;4.13;;;2.05;;
71715;SDS011;59568;52.128;5.434;2024-01-10T04:17:36;2.35;;;0.93;;
71715;SDS011;59568;52.128;5.434;2024-01-10T04:20:04;3.47;;;2.00;;
71715;SDS011;59568;52.128;5.434;2024-01-10T04:22:31;1.58;;;1.27;;
71715;SDS011;59568;52.128;5.434;2024-01-10T04:24:59;1.80;;;1.10;;
71715;SDS011;59568;52.128;5.434;2024-01-10T04:27:27;1.38;;;1.13;;
71715;SDS011;59568;52.128;5.434;2024-01-10T04:29:54;2.08;;;1.13;;
71715;SDS011;59568;52.128;5.434;2024-01-10T04:32:21;5.07;;;1.10;;
71715;SDS011;59568;52.128;5.434;2024-01-10T04:34:48;2.92;;;1.35;;
71715;SDS011;59568;52.128;5.434;2024-01-10T04:37:15;3.35;;;1.08;;
71715;SDS011;59568;52.128;5.434;2024-01-10T04:39:43;2.22;;;1.15;;
71715;SDS011;59568;52.128;5.434;2024-01-10T04:42:10;1.52;;;1.05;;
71715;SDS011;59568;52.128;5.434;2024-01-10T04:44:37;1.83;;;1.33;;
71715;SDS011;59568;52.128;5.434;2024-01-10T04:47:05;1.50;;;1.20;;
71715;SDS011;59568;52.128;5.434;2024-01-10T04:49:32;6.45;;;1.58;;
71715;SDS011;59568;52.128;5.434;2024-01-10T04:51:59;2.25;;;1.10;;
71715;SDS011;59568;52.128;5.434;2024-01-10T04:54:26;2.95;;;1.38;;
71715;SDS011;59568;52.128;5.434;2024-01-10T04:56:53;1.93;;;0.90;;
71715;SDS011;59568;52.128;5.434;2024-01-10T04:59:20;2.75;;;0.93;;
71715;SDS011;59568;52.128;5.434;2024-01-10T05:01:47;2.30;;;0.93;;
71715;SDS011;59568;52.128;5.434;2024-01-10T05:04:14;1.73;;;1.20;;
71715;SDS011;59568;52.128;5.434;2024-01-10T05:06:41;2.30;;;1.20;;
71715;SDS011;59568;52.128;5.434;2024-01-10T05:09:08;5.27;;;1.57;;
71715;SDS011;59568;52.128;5.434;2024-01-10T05:11:36;3.78;;;1.95;;
71715;SDS011;59568;52.128;5.434;2024-01-10T05:14:05;2.53;;;1.48;;
71715;SDS011;59568;52.128;5.434;2024-01-10T05:16:32;1.52;;;0.70;;
71715;SDS011;59568;52.128;5.434;2024-01-10T05:19:02;3.10;;;1.35;;
71715;SDS011;59568;52.128;5.434;2024-01-10T05:21:32;2.07;;;1.27;;
71715;SDS011;59568;52.128;5.434;2024-01-10T05:23:59;2.83;;;1.23;;
71715;SDS011;59568;52.128;5.434;2024-01-10T05:26:26;3.55;;;1.25;;
71715;SDS011;59568;52.128;5.434;2024-01-10T05:28:53;2.67;;;1.05;;
71715;SDS011;59568;52.128;5.434;2024-01-10T05:31:20;4.25;;;1.10;;
71715;SDS011;59568;52.128;5.434;2024-01-10T05:33:47;2.97;;;1.33;;
71715;SDS011;59568;52.128;5.434;2024-01-10T05:36:14;5.82;;;0.90;;
71715;SDS011;59568;52.128;5.434;2024-01-10T05:38:41;2.42;;;1.60;;
71715;SDS011;59568;52.128;5.434;2024-01-10T05:41:08;2.97;;;1.63;;
71715;SDS011;59568;52.128;5.434;2024-01-10T05:43:35;2.22;;;0.82;;
71715;SDS011;59568;52.128;5.434;2024-01-10T05:46:03;2.07;;;1.40;;
71715;SDS011;59568;52.128;5.434;2024-01-10T05:48:31;2.70;;;1.30;;
71715;SDS011;59568;52.128;5.434;2024-01-10T05:50:59;1.92;;;1.00;;
71715;SDS011;59568;52.128;5.434;2024-01-10T05:53:26;1.92;;;0.93;;
71715;SDS011;59568;52.128;5.434;2024-01-10T05:55:53;2.95;;;1.08;;
71715;SDS011;59568;52.128;5.434;2024-01-10T05:58:20;5.10;;;1.70;;
71715;SDS011;59568;52.128;5.434;2024-01-10T06:00:47;1.88;;;1.10;;
71715;SDS011;59568;52.128;5.434;2024-01-10T06:03:14;2.97;;;1.15;;
71715;SDS011;59568;52.128;5.434;2024-01-10T06:05:41;2.03;;;1.27;;
71715;SDS011;59568;52.128;5.434;2024-01-10T06:08:08;1.48;;;0.73;;
71715;SDS011;59568;52.128;5.434;2024-01-10T06:10:35;3.23;;;1.10;;
71715;SDS011;59568;52.128;5.434;2024-01-10T06:13:03;2.67;;;0.98;;
71715;SDS011;59568;52.128;5.434;2024-01-10T06:15:30;2.13;;;1.23;;
71715;SDS011;59568;52.128;5.434;2024-01-10T06:17:57;1.05;;;0.95;;
71715;SDS011;59568;52.128;5.434;2024-01-10T06:20:25;4.95;;;1.85;;
71715;SDS011;59568;52.128;5.434;2024-01-10T06:22:52;2.90;;;0.77;;
71715;SDS011;59568;52.128;5.434;2024-01-10T06:25:19;7.82;;;1.98;;
71715;SDS011;59568;52.128;5.434;2024-01-10T06:27:46;1.90;;;1.35;;
71715;SDS011;59568;52.128;5.434;2024-01-10T06:30:13;3.88;;;1.15;;
71715;SDS011;59568;52.128;5.434;2024-01-10T06:32:40;3.15;;;1.92;;
71715;SDS011;59568;52.128;5.434;2024-01-10T06:35:07;1.67;;;0.80;;
71715;SDS011;59568;52.128;5.434;2024-01-10T06:37:37;1.58;;;0.95;;
71715;SDS011;59568;52.128;5.434;2024-01-10T06:40:06;2.13;;;1.60;;
71715;SDS011;59568;52.128;5.434;2024-01-10T06:42:33;2.40;;;1.25;;
71715;SDS011;59568;52.128;5.434;2024-01-10T06:45:00;2.20;;;1.30;;
71715;SDS011;59568;52.128;5.434;2024-01-10T06:47:27;8.07;;;1.07;;
71715;SDS011;59568;52.128;5.434;2024-01-10T06:49:54;2.83;;;0.98;;
71715;SDS011;59568;52.128;5.434;2024-01-10T06:52:21;2.75;;;1.60;;
71715;SDS011;59568;52.128;5.434;2024-01-10T06:54:48;4.53;;;1.98;;
71715;SDS011;59568;52.128;5.434;2024-01-10T06:57:15;3.50;;;1.13;;
71715;SDS011;59568;52.128;5.434;2024-01-10T06:59:42;3.37;;;1.23;;
71715;SDS011;59568;52.128;5.434;2024-01-10T07:02:10;2.90;;;1.50;;
71715;SDS011;59568;52.128;5.434;2024-01-10T07:04:37;2.13;;;1.38;;
71715;SDS011;59568;52.128;5.434;2024-01-10T07:07:04;2.78;;;1.52;;
71715;SDS011;59568;52.128;5.434;2024-01-10T07:09:32;3.85;;;1.17;;
71715;SDS011;59568;52.128;5.434;2024-01-10T07:11:59;5.33;;;1.50;;
71715;SDS011;59568;52.128;5.434;2024-01-10T07:14:26;2.45;;;1.55;;
71715;SDS011;59568;52.128;5.434;2024-01-10T07:16:53;1.92;;;1.02;;
71715;SDS011;59568;52.128;5.434;2024-01-10T07:19:23;1.75;;;0.88;;
71715;SDS011;59568;52.128;5.434;2024-01-10T07:21:51;3.38;;;1.65;;
71715;SDS011;59568;52.128;5.434;2024-01-10T07:24:20;2.57;;;1.43;;
71715;SDS011;59568;52.128;5.434;2024-01-10T07:26:48;1.00;;;0.95;;
71715;SDS011;59568;52.128;5.434;2024-01-10T07:29:15;2.00;;;1.05;;
71715;SDS011;59568;52.128;5.434;2024-01-10T07:31:42;2.58;;;0.95;;
71715;SDS011;59568;52.128;5.434;2024-01-10T07:34:09;1.85;;;1.35;;
71715;SDS011;59568;52.128;5.434;2024-01-10T07:36:46;5.03;;;3.40;;
71715;SDS011;59568;52.128;5.434;2024-01-10T07:39:13;4.88;;;1.77;;
71715;SDS011;59568;52.128;5.434;2024-01-10T07:41:44;2.50;;;1.30;;
71715;SDS011;59568;52.128;5.434;2024-01-10T07:44:12;5.53;;;1.70;;
71715;SDS011;59568;52.128;5.434;2024-01-10T07:46:39;3.63;;;2.15;;
71715;SDS011;59568;52.128;5.434;2024-01-10T07:49:06;2.37;;;1.57;;
71715;SDS011;59568;52.128;5.434;2024-01-10T07:51:33;3.58;;;1.67;;
71715;SDS011;59568;52.128;5.434;2024-01-10T07:54:00;4.68;;;2.08;;
71715;SDS011;59568;52.128;5.434;2024-01-10T07:56:28;4.15;;;1.45;;
71715;SDS011;59568;52.128;5.434;2024-01-10T07:58:56;3.90;;;1.55;;
71715;SDS011;59568;52.128;5.434;2024-01-10T08:01:23;2.87;;;1.30;;
71715;SDS011;59568;52.128;5.434;2024-01-10T08:03:50;5.65;;;1.75;;
71715;SDS011;59568;52.128;5.434;2024-01-10T08:06:17;2.80;;;1.48;;
71715;SDS011;59568;52.128;5.434;2024-01-10T08:08:55;2.22;;;1.42;;
71715;SDS011;59568;52.128;5.434;2024-01-10T08:11:22;3.05;;;1.35;;
71715;SDS011;59568;52.128;5.434;2024-01-10T08:13:51;1.90;;;1.23;;
71715;SDS011;59568;52.128;5.434;2024-01-10T08:16:18;4.20;;;2.28;;
71715;SDS011;59568;52.128;5.434;2024-01-10T08:18:45;5.85;;;1.85;;
71715;SDS011;59568;52.128;5.434;2024-01-10T08:21:12;3.55;;;1.98;;
71715;SDS011;59568;52.128;5.434;2024-01-10T08:23:39;3.03;;;1.67;;
71715;SDS011;59568;52.128;5.434;2024-01-10T08:26:06;1.90;;;1.50;;
71715;SDS011;59568;52.128;5.434;2024-01-10T08:28:35;4.05;;;1.73;;
71715;SDS011;59568;52.128;5.434;2024-01-10T08:31:02;2.60;;;2.15;;
71715;SDS011;59568;52.128;5.434;2024-01-10T08:33:31;5.30;;;1.65;;
71715;SDS011;59568;52.128;5.434;2024-01-10T08:35:58;3.67;;;1.98;;
71715;SDS011;59568;52.128;5.434;2024-01-10T08:38:26;2.07;;;0.90;;
71715;SDS011;59568;52.128;5.434;2024-01-10T08:40:53;1.42;;;1.17;;
71715;SDS011;59568;52.128;5.434;2024-01-10T08:43:20;2.38;;;1.60;;
71715;SDS011;59568;52.128;5.434;2024-01-10T08:45:47;7.22;;;2.00;;
71715;SDS011;59568;52.128;5.434;2024-01-10T08:48:14;2.92;;;1.50;;
71715;SDS011;59568;52.128;5.434;2024-01-10T08:50:42;1.67;;;1.10;;
71715;SDS011;59568;52.128;5.434;2024-01-10T08:53:10;4.38;;;1.80;;
71715;SDS011;59568;52.128;5.434;2024-01-10T08:55:37;2.50;;;1.40;;
71715;SDS011;59568;52.128;5.434;2024-01-10T08:58:04;4.38;;;1.85;;
71715;SDS011;59568;52.128;5.434;2024-01-10T09:00:32;3.55;;;1.52;;
71715;SDS011;59568;52.128;5.434;2024-01-10T09:02:59;5.47;;;1.73;;
71715;SDS011;59568;52.128;5.434;2024-01-10T09:05:27;2.05;;;1.50;;
71715;SDS011;59568;52.128;5.434;2024-01-10T09:07:54;4.15;;;1.88;;
71715;SDS011;59568;52.128;5.434;2024-01-10T09:10:21;5.03;;;1.83;;
71715;SDS011;59568;52.128;5.434;2024-01-10T09:12:48;5.63;;;2.08;;
71715;SDS011;59568;52.128;5.434;2024-01-10T09:15:16;4.17;;;1.70;;
71715;SDS011;59568;52.128;5.434;2024-01-10T09:17:43;4.93;;;2.15;;
71715;SDS011;59568;52.128;5.434;2024-01-10T09:20:11;2.97;;;1.38;;
71715;SDS011;59568;52.128;5.434;2024-01-10T09:22:39;2.83;;;1.30;;
71715;SDS011;59568;52.128;5.434;2024-01-10T09:25:06;2.88;;;1.90;;
71715;SDS011;59568;52.128;5.434;2024-01-10T09:27:35;4.47;;;1.87;;
71715;SDS011;59568;52.128;5.434;2024-01-10T09:30:02;4.28;;;1.73;;
71715;SDS011;59568;52.128;5.434;2024-01-10T09:32:35;2.80;;;1.63;;
71715;SDS011;59568;52.128;5.434;2024-01-10T09:35:03;2.03;;;1.27;;
71715;SDS011;59568;52.128;5.434;2024-01-10T09:37:31;2.58;;;1.45;;
71715;SDS011;59568;52.128;5.434;2024-01-10T09:39:58;3.13;;;1.93;;
71715;SDS011;59568;52.128;5.434;2024-01-10T09:42:25;4.57;;;1.10;;
71715;SDS011;59568;52.128;5.434;2024-01-10T09:44:52;5.10;;;2.17;;
71715;SDS011;59568;52.128;5.434;2024-01-10T09:47:19;2.38;;;1.27;;
71715;SDS011;59568;52.128;5.434;2024-01-10T09:49:47;1.73;;;1.02;;
71715;SDS011;59568;52.128;5.434;2024-01-10T09:52:24;4.80;;;2.23;;
71715;SDS011;59568;52.128;5.434;2024-01-10T09:54:57;4.78;;;2.22;;
71715;SDS011;59568;52.128;5.434;2024-01-10T09:57:25;3.08;;;1.70;;
71715;SDS011;59568;52.128;5.434;2024-01-10T09:59:52;2.92;;;1.50;;
71715;SDS011;59568;52.128;5.434;2024-01-10T10:02:23;4.20;;;2.03;;
71715;SDS011;59568;52.128;5.434;2024-01-10T10:07:28;4.32;;;1.85;;
71715;SDS011;59568;52.128;5.434;2024-01-10T10:09:55;4.80;;;2.30;;
71715;SDS011;59568;52.128;5.434;2024-01-10T10:15:19;5.97;;;2.33;;
71715;SDS011;59568;52.128;5.434;2024-01-10T10:17:53;4.80;;;2.43;;
71715;SDS011;59568;52.128;5.434;2024-01-10T10:20:27;3.40;;;1.63;;
71715;SDS011;59568;52.128;5.434;2024-01-10T10:23:00;4.05;;;1.83;;
71715;SDS011;59568;52.128;5.434;2024-01-10T10:25:34;2.35;;;1.52;;
71715;SDS011;59568;52.128;5.434;2024-01-10T10:28:04;4.55;;;2.17;;
71715;SDS011;59568;52.128;5.434;2024-01-10T10:30:33;4.13;;;2.03;;
71715;SDS011;59568;52.128;5.434;2024-01-10T10:33:03;3.47;;;1.90;;
71715;SDS011;59568;52.128;5.434;2024-01-10T10:35:34;3.80;;;2.33;;
71715;SDS011;59568;52.128;5.434;2024-01-10T10:38:08;4.30;;;2.15;;
71715;SDS011;59568;52.128;5.434;2024-01-10T10:40:37;6.07;;;2.45;;
71715;SDS011;59568;52.128;5.434;2024-01-10T10:43:04;6.23;;;2.57;;
71715;SDS011;59568;52.128;5.434;2024-01-10T10:45:32;5.25;;;2.33;;
71715;SDS011;59568;52.128;5.434;2024-01-10T10:48:00;5.68;;;2.72;;
71715;SDS011;59568;52.128;5.434;2024-01-10T10:50:32;4.85;;;2.30;;
71715;SDS011;59568;52.128;5.434;2024-01-10T10:53:02;5.45;;;2.42;;
71715;SDS011;59568;52.128;5.434;2024-01-10T10:55:31;6.87;;;2.73;;
71715;SDS011;59568;52.128;5.434;2024-01-10T10:58:01;3.60;;;2.13;;
71715;SDS011;59568;52.128;5.434;2024-01-10T11:00:37;8.63;;;2.25;;
71715;SDS011;59568;52.128;5.434;2024-01-10T11:03:05;4.80;;;2.10;;
71715;SDS011;59568;52.128;5.434;2024-01-10T11:05:37;5.90;;;2.47;;
71715;SDS011;59568;52.128;5.434;2024-01-10T11:08:09;5.37;;;2.80;;
71715;SDS011;59568;52.128;5.434;2024-01-10T11:10:39;5.22;;;3.22;;
71715;SDS011;59568;52.128;5.434;2024-01-10T11:13:29;5.85;;;3.15;;
71715;SDS011;59568;52.128;5.434;2024-01-10T11:22:27;5.47;;;2.33;;
71715;SDS011;59568;52.128;5.434;2024-01-10T11:24:53;7.28;;;3.20;;
71715;SDS011;59568;52.128;5.434;2024-01-10T11:27:20;6.30;;;3.17;;
71715;SDS011;59568;52.128;5.434;2024-01-10T11:29:47;6.03;;;2.78;;
71715;SDS011;59568;52.128;5.434;2024-01-10T11:32:15;6.72;;;2.70;;
71715;SDS011;59568;52.128;5.434;2024-01-10T11:34:58;4.37;;;2.10;;
71715;SDS011;59568;52.128;5.434;2024-01-10T11:37:41;4.20;;;2.53;;
71715;SDS011;59568;52.128;5.434;2024-01-10T11:40:09;12.05;;;3.38;;
71715;SDS011;59568;52.128;5.434;2024-01-10T11:42:42;5.60;;;2.78;;
71715;SDS011;59568;52.128;5.434;2024-01-10T11:45:09;8.07;;;2.67;;
71715;SDS011;59568;52.128;5.434;2024-01-10T11:47:39;4.10;;;2.20;;
71715;SDS011;59568;52.128;5.434;2024-01-10T11:50:08;9.68;;;3.67;;
71715;SDS011;59568;52.128;5.434;2024-01-10T11:52:36;5.43;;;2.08;;
71715;SDS011;59568;52.128;5.434;2024-01-10T11:55:04;7.72;;;2.75;;
71715;SDS011;59568;52.128;5.434;2024-01-10T11:57:34;4.78;;;2.70;;
71715;SDS011;59568;52.128;5.434;2024-01-10T12:00:01;5.90;;;2.60;;
71715;SDS011;59568;52.128;5.434;2024-01-10T12:02:32;6.38;;;3.15;;
71715;SDS011;59568;52.128;5.434;2024-01-10T12:04:59;5.07;;;2.05;;
71715;SDS011;59568;52.128;5.434;2024-01-10T12:07:27;5.07;;;2.47;;
71715;SDS011;59568;52.128;5.434;2024-01-10T12:09:54;4.18;;;2.10;;
71715;SDS011;59568;52.128;5.434;2024-01-10T12:12:22;4.60;;;2.97;;
71715;SDS011;59568;52.128;5.434;2024-01-10T12:14:50;4.70;;;2.38;;
71715;SDS011;59568;52.128;5.434;2024-01-10T12:17:18;7.63;;;2.63;;
71715;SDS011;59568;52.128;5.434;2024-01-10T12:19:46;7.05;;;3.00;;
71715;SDS011;59568;52.128;5.434;2024-01-10T12:22:18;7.18;;;2.42;;
71715;SDS011;59568;52.128;5.434;2024-01-10T12:24:48;6.67;;;2.43;;
71715;SDS011;59568;52.128;5.434;2024-01-10T12:27:18;6.68;;;2.80;;
71715;SDS011;59568;52.128;5.434;2024-01-10T12:29:50;7.55;;;2.80;;
71715;SDS011;59568;52.128;5.434;2024-01-10T12:32:19;6.70;;;2.40;;
71715;SDS011;59568;52.128;5.434;2024-01-10T12:34:54;5.00;;;3.13;;
71715;SDS011;59568;52.128;5.434;2024-01-10T12:37:26;4.90;;;2.67;;
71715;SDS011;59568;52.128;5.434;2024-01-10T12:39:54;7.50;;;3.17;;
71715;SDS011;59568;52.128;5.434;2024-01-10T12:42:21;7.05;;;2.67;;
71715;SDS011;59568;52.128;5.434;2024-01-10T12:44:48;6.03;;;2.15;;
71715;SDS011;59568;52.128;5.434;2024-01-10T12:47:21;6.68;;;2.30;;
71715;SDS011;59568;52.128;5.434;2024-01-10T12:49:51;4.80;;;2.50;;
71715;SDS011;59568;52.128;5.434;2024-01-10T12:52:18;6.43;;;3.03;;
71715;SDS011;59568;52.128;5.434;2024-01-10T12:54:50;6.53;;;2.83;;
71715;SDS011;59568;52.128;5.434;2024-01-10T12:57:18;5.18;;;2.15;;
71715;SDS011;59568;52.128;5.434;2024-01-10T12:59:45;6.05;;;2.78;;
71715;SDS011;59568;52.128;5.434;2024-01-10T13:02:12;5.43;;;2.27;;
71715;SDS011;59568;52.128;5.434;2024-01-10T13:04:39;4.57;;;1.73;;
71715;SDS011;59568;52.128;5.434;2024-01-10T13:07:06;5.47;;;2.60;;
71715;SDS011;59568;52.128;5.434;2024-01-10T13:09:34;9.77;;;2.97;;
71715;SDS011;59568;52.128;5.434;2024-01-10T13:12:03;5.82;;;2.15;;
71715;SDS011;59568;52.128;5.434;2024-01-10T13:14:31;5.00;;;2.17;;
71715;SDS011;59568;52.128;5.434;2024-01-10T13:16:58;3.78;;;1.83;;
71715;SDS011;59568;52.128;5.434;2024-01-10T13:19:26;4.75;;;2.13;;
71715;SDS011;59568;52.128;5.434;2024-01-10T13:21:53;7.35;;;2.95;;
71715;SDS011;59568;52.128;5.434;2024-01-10T13:24:22;8.38;;;3.22;;
71715;SDS011;59568;52.128;5.434;2024-01-10T13:26:49;5.43;;;2.37;;
71715;SDS011;59568;52.128;5.434;2024-01-10T13:29:16;7.25;;;2.70;;
71715;SDS011;59568;52.128;5.434;2024-01-10T13:31:43;4.78;;;2.47;;
71715;SDS011;59568;52.128;5.434;2024-01-10T13:34:11;7.38;;;3.17;;
71715;SDS011;59568;52.128;5.434;2024-01-10T13:36:38;6.45;;;3.05;;
71715;SDS011;59568;52.128;5.434;2024-01-10T13:39:06;5.67;;;2.80;;
71715;SDS011;59568;52.128;5.434;2024-01-10T13:41:34;4.82;;;2.47;;
71715;SDS011;59568;52.128;5.434;2024-01-10T13:44:01;4.22;;;2.05;;
71715;SDS011;59568;52.128;5.434;2024-01-10T13:46:28;15.05;;;2.75;;
71715;SDS011;59568;52.128;5.434;2024-01-10T13:48:55;7.70;;;2.55;;
71715;SDS011;59568;52.128;5.434;2024-01-10T13:51:22;5.97;;;2.80;;
71715;SDS011;59568;52.128;5.434;2024-01-10T13:53:49;5.47;;;2.00;;
71715;SDS011;59568;52.128;5.434;2024-01-10T13:56:16;4.90;;;2.45;;
71715;SDS011;59568;52.128;5.434;2024-01-10T13:58:43;5.97;;;2.63;;
71715;SDS011;59568;52.128;5.434;2024-01-10T14:01:10;4.35;;;2.33;;
71715;SDS011;59568;52.128;5.434;2024-01-10T14:03:38;6.57;;;2.87;;
71715;SDS011;59568;52.128;5.434;2024-01-10T14:06:05;7.05;;;3.28;;
71715;SDS011;59568;52.128;5.434;2024-01-10T14:08:32;7.97;;;3.15;;
71715;SDS011;59568;52.128;5.434;2024-01-10T14:11:00;6.13;;;2.85;;
71715;SDS011;59568;52.128;5.434;2024-01-10T14:13:27;6.10;;;2.83;;
71715;SDS011;59568;52.128;5.434;2024-01-10T14:15:54;4.53;;;2.90;;
71715;SDS011;59568;52.128;5.434;2024-01-10T14:18:21;5.72;;;2.70;;
71715;SDS011;59568;52.128;5.434;2024-01-10T14:20:49;6.50;;;2.38;;
71715;SDS011;59568;52.128;5.434;2024-01-10T14:23:16;5.30;;;2.70;;
71715;SDS011;59568;52.128;5.434;2024-01-10T14:25:45;6.43;;;2.22;;
71715;SDS011;59568;52.128;5.434;2024-01-10T14:28:12;7.43;;;3.37;;
71715;SDS011;59568;52.128;5.434;2024-01-10T14:30:39;4.93;;;2.30;;
71715;SDS011;59568;52.128;5.434;2024-01-10T14:33:07;5.40;;;2.85;;
71715;SDS011;59568;52.128;5.434;2024-01-10T14:35:35;5.68;;;2.58;;
71715;SDS011;59568;52.128;5.434;2024-01-10T14:38:02;5.75;;;2.90;;
71715;SDS011;59568;52.128;5.434;2024-01-10T14:40:30;7.30;;;3.00;;
71715;SDS011;59568;52.128;5.434;2024-01-10T14:42:57;5.85;;;2.95;;
71715;SDS011;59568;52.128;5.434;2024-01-10T14:45:24;4.65;;;2.13;;
71715;SDS011;59568;52.128;5.434;2024-01-10T14:47:52;4.43;;;2.38;;
71715;SDS011;59568;52.128;5.434;2024-01-10T14:50:19;4.55;;;2.22;;
71715;SDS011;59568;52.128;5.434;2024-01-10T14:52:47;8.10;;;3.13;;
71715;SDS011;59568;52.128;5.434;2024-01-10T14:55:14;4.03;;;2.10;;
71715;SDS011;59568;52.128;5.434;2024-01-10T14:57:41;7.00;;;2.80;;
71715;SDS011;59568;52.128;5.434;2024-01-10T15:00:08;9.38;;;3.28;;
71715;SDS011;59568;52.128;5.434;2024-01-10T15:02:37;10.95;;;2.83;;
71715;SDS011;59568;52.128;5.434;2024-01-10T15:05:05;5.13;;;2.67;;